Time;durP1;ratioP1;P1;durP2;ratioP2;P2;SDS_P1;SDS_P2;PMS_P1;PMS_P2;Temp;Humidity;BMP_temperature;BMP_pressure;BME280_temperature;BME280_humidity;BME280_pressure;Samples;Min_cycle;Max_cycle;Signal;HPM_P1;HPM_P2
2024/01/22 00:01:10;;;;;;;;;;;11.80;41.80;;;12.02;44.28;100451.41;5043147;28;19960;-38
2024/01/22 00:03:38;;;;;;;;;;;11.80;41.80;;;12.03;44.51;100445.66;5046699;28;19954;-41
2024/01/22 00:06:07;;;;;;;;;;;11.90;41.80;;;12.05;44.44;100459.31;5049059;28;20035;-40
2024/01/22 00:08:35;;;;;;;;;;;11.90;41.80;;;12.01;44.48;100462.16;5047206;28;20467;-41
2024/01/22 00:11:03;;;;;;;;;;;11.80;41.80;;;12.01;44.47;100447.09;5031778;28;20416;-40
2024/01/22 00:13:31;;;;;;;;;;;11.80;41.80;;;12.04;44.56;100455.00;5046729;28;19925;-41
2024/01/22 00:15:58;;;;;;;;;;;11.80;41.80;;;12.06;44.67;100443.53;5032002;28;20011;-40
2024/01/22 00:18:28;;;;;;;;;;;11.90;41.70;;;12.05;44.76;100449.28;5040026;28;19932;-40
2024/01/22 00:20:56;;;;;;;;;;;11.90;41.70;;;12.03;44.21;100435.63;5034088;28;19994;-41
2024/01/22 00:23:24;;;;;;;;;;;11.90;41.80;;;12.04;44.94;100442.44;5050655;28;19924;-41
2024/01/22 00:25:52;;;;;;;;;;;11.90;42.00;;;12.02;44.94;100408.72;5036692;28;20354;-40
2024/01/22 00:28:20;;;;;;;;;;;11.80;41.80;;;12.03;44.31;100410.50;5048290;28;19964;-40
2024/01/22 00:30:48;;;;;;;;;;;11.90;41.90;;;11.98;44.77;100386.47;5046291;28;20341;-40
2024/01/22 00:33:16;;;;;;;;;;;11.90;41.90;;;12.05;44.80;100394.03;5042765;28;19976;-41
2024/01/22 00:35:45;;;;;;;;;;;11.90;41.90;;;12.02;45.22;100381.09;5045835;28;19933;-38
2024/01/22 00:38:13;;;;;;;;;;;11.80;42.00;;;12.02;45.02;100373.56;5041219;28;19925;-37
2024/01/22 00:40:41;;;;;;;;;;;11.80;41.90;;;12.06;44.72;100368.22;5046370;28;20019;-38
2024/01/22 00:43:09;;;;;;;;;;;11.90;41.90;;;12.05;44.43;100358.88;5040078;28;20235;-38
2024/01/22 00:45:38;;;;;;;;;;;11.90;42.00;;;12.02;44.98;100353.47;5046938;28;19925;-38
2024/01/22 00:48:07;;;;;;;;;;;11.90;42.10;;;12.01;44.47;100346.66;5048060;28;19925;-39
2024/01/22 00:50:35;;;;;;;;;;;11.80;42.00;;;12.03;44.21;100345.22;5039593;28;20329;-38
2024/01/22 00:53:05;;;;;;;;;;;11.80;42.10;;;12.04;44.56;100342.00;5039235;28;19931;-38
2024/01/22 00:55:32;;;;;;;;;;;11.90;42.20;;;12.04;44.70;100342.00;5039456;28;19979;-39
2024/01/22 00:58:00;;;;;;;;;;;11.90;42.20;;;12.04;44.52;100321.91;5039559;28;20431;-39
2024/01/22 01:00:28;;;;;;;;;;;11.90;42.10;;;12.05;44.69;100318.69;5047621;28;20138;-39
2024/01/22 01:02:56;;;;;;;;;;;11.90;42.10;;;12.04;44.72;100296.81;5039000;28;19971;-38
2024/01/22 01:05:24;;;;;;;;;;;11.90;42.20;;;12.01;44.86;100301.44;5047508;28;19929;-41
2024/01/22 01:07:52;;;;;;;;;;;11.80;42.30;;;12.06;45.09;100284.44;5046312;28;19925;-40
2024/01/22 01:10:22;;;;;;;;;;;11.90;42.30;;;12.03;45.04;100266.47;5042710;28;20381;-37
2024/01/22 01:12:50;;;;;;;;;;;11.90;42.50;;;12.02;45.75;100268.09;5044639;28;19929;-39
2024/01/22 01:15:20;;;;;;;;;;;11.80;42.50;;;12.00;45.63;100254.50;5039259;28;20008;-40
2024/01/22 01:17:48;;;;;;;;;;;11.80;42.50;;;12.03;45.51;100244.78;5045459;28;20312;-39
2024/01/22 01:20:16;;;;;;;;;;;11.80;42.50;;;12.04;45.63;100236.53;5033842;28;19925;-40
2024/01/22 01:22:44;;;;;;;;;;;11.80;42.60;;;12.05;45.36;100225.78;5030575;28;19972;-40
2024/01/22 01:25:12;;;;;;;;;;;11.90;42.60;;;12.04;45.41;100231.53;5034039;28;19953;-39
2024/01/22 01:27:41;;;;;;;;;;;11.90;42.60;;;11.96;45.64;100227.19;5049447;22;20028;-35
2024/01/22 01:30:10;;;;;;;;;;;11.90;42.70;;;12.03;45.64;100229.72;5052591;28;19924;-35
2024/01/22 01:32:39;;;;;;;;;;;11.80;42.70;;;12.03;45.12;100209.63;5055141;28;20016;-35
2024/01/22 01:35:08;;;;;;;;;;;11.90;42.80;;;12.06;45.18;100224.19;5055185;28;20415;-35
2024/01/22 01:37:36;;;;;;;;;;;11.90;42.80;;;12.06;45.52;100199.97;5055348;28;19928;-35
2024/01/22 01:40:05;;;;;;;;;;;11.90;42.70;;;12.05;45.48;100208.22;5047454;28;20024;-35
2024/01/22 01:42:32;;;;;;;;;;;11.90;42.80;;;12.05;45.14;100194.75;5026790;28;20016;-35
2024/01/22 01:45:02;;;;;;;;;;;11.90;42.80;;;12.04;45.41;100181.31;5043148;28;20455;-35
2024/01/22 01:47:30;;;;;;;;;;;11.90;42.80;;;12.08;45.57;100177.50;5046837;28;19931;-35
2024/01/22 01:49:58;;;;;;;;;;;11.90;42.80;;;12.07;45.73;100169.13;5048597;28;19925;-35
2024/01/22 01:52:25;;;;;;;;;;;11.90;42.80;;;12.09;45.42;100175.19;5045473;28;20388;-35
2024/01/22 01:54:53;;;;;;;;;;;11.90;42.80;;;12.07;45.63;100156.56;5048757;28;19925;-34
2024/01/22 01:57:22;;;;;;;;;;;11.90;42.80;;;12.08;45.87;100163.34;5053968;28;19968;-35
2024/01/22 01:59:51;;;;;;;;;;;11.90;42.80;;;12.09;45.17;100140.03;5049572;28;19932;-35
2024/01/22 02:02:21;;;;;;;;;;;11.90;42.70;;;12.12;45.26;100144.53;5042886;28;19925;-35
2024/01/22 02:04:49;;;;;;;;;;;11.90;42.80;;;12.12;45.85;100146.13;5040811;28;19925;-36
2024/01/22 02:07:17;;;;;;;;;;;11.90;42.70;;;12.13;45.54;100150.44;5047254;28;19928;-35
2024/01/22 02:09:46;;;;;;;;;;;11.90;42.70;;;12.12;46.05;100141.13;5049791;28;19925;-35
2024/01/22 02:12:15;;;;;;;;;;;11.90;42.80;;;12.09;45.13;100132.50;5043558;28;19979;-35
2024/01/22 02:14:43;;;;;;;;;;;11.90;43.00;;;12.11;45.38;100136.81;5046807;28;20106;-35
2024/01/22 02:17:11;;;;;;;;;;;11.90;43.00;;;12.12;45.54;100143.63;5054750;28;20158;-35
2024/01/22 02:19:40;;;;;;;;;;;11.90;43.00;;;12.13;45.58;100142.91;5050316;28;20016;-35
2024/01/22 02:22:08;;;;;;;;;;;11.90;42.90;;;12.01;46.20;100125.69;5042601;28;19925;-35
2024/01/22 02:24:38;;;;;;;;;;;11.90;42.90;;;12.12;45.96;100131.06;5030824;28;19965;-35
2024/01/22 02:27:06;;;;;;;;;;;11.90;42.90;;;12.15;45.25;100133.91;5046678;28;19931;-35
2024/01/22 02:29:34;;;;;;;;;;;12.00;42.90;;;12.16;45.72;100130.69;5042202;28;19931;-35
2024/01/22 02:32:02;;;;;;;;;;;12.00;43.50;;;12.17;45.49;100117.41;5048058;28;19988;-36
2024/01/22 02:34:30;;;;;;;;;;;12.00;42.90;;;12.14;45.90;100127.13;5058318;28;19971;-36
2024/01/22 02:36:58;;;;;;;;;;;12.00;42.90;;;12.09;46.05;100104.88;5055653;28;19964;-36
2024/01/22 02:39:26;;;;;;;;;;;11.90;42.90;;;12.15;45.66;100118.84;5046774;28;20019;-35
2024/01/22 02:41:55;;;;;;;;;;;11.90;42.90;;;12.17;45.31;100099.84;5054253;28;19940;-35
2024/01/22 02:44:23;;;;;;;;;;;12.00;42.90;;;12.14;45.31;100092.84;5038015;28;19933;-36
2024/01/22 02:46:51;;;;;;;;;;;12.00;42.90;;;12.14;45.99;100094.50;5054474;28;20004;-36
2024/01/22 02:49:19;;;;;;;;;;;12.00;43.00;;;12.12;46.04;100098.44;5046211;28;19925;-36
2024/01/22 02:51:47;;;;;;;;;;;11.90;43.00;;;12.14;45.44;100081.94;5054080;28;19975;-36
2024/01/22 02:54:15;;;;;;;;;;;12.00;42.90;;;12.18;45.25;100089.09;5054611;28;20415;-36
2024/01/22 02:56:43;;;;;;;;;;;12.00;42.90;;;12.18;45.37;100063.97;5054123;28;19925;-36
2024/01/22 02:59:13;;;;;;;;;;;12.00;42.90;;;12.14;45.87;100066.88;5053532;28;19931;-36
2024/01/22 03:01:41;;;;;;;;;;;12.00;43.10;;;12.13;45.59;100055.03;5053399;28;19925;-36
2024/01/22 03:04:09;;;;;;;;;;;11.90;43.20;;;12.15;45.46;100038.50;5045669;28;19929;-36
2024/01/22 03:06:38;;;;;;;;;;;11.90;43.20;;;12.16;45.88;100040.28;5054557;28;19929;-36
2024/01/22 03:09:06;;;;;;;;;;;12.00;43.30;;;12.19;45.97;100048.19;5054005;28;20384;-36
2024/01/22 03:11:34;;;;;;;;;;;12.00;43.20;;;12.19;45.76;100036.53;5053335;28;19931;-36
2024/01/22 03:14:02;;;;;;;;;;;12.00;43.10;;;12.18;46.22;100021.28;5045414;28;19925;-36
2024/01/22 03:16:32;;;;;;;;;;;12.00;43.80;;;12.18;46.37;100021.28;5036954;28;19960;-36
2024/01/22 03:19:00;;;;;;;;;;;12.00;43.20;;;12.19;45.91;100006.38;5053395;28;20450;-36
2024/01/22 03:21:28;;;;;;;;;;;12.00;43.20;;;12.21;45.84;99999.00;5042947;28;19930;-36
2024/01/22 03:23:56;;;;;;;;;;;12.10;43.10;;;12.24;45.46;99994.34;5041963;28;19925;-36
2024/01/22 03:26:24;;;;;;;;;;;12.00;43.00;;;12.20;45.49;99967.09;5043404;28;19932;-36
2024/01/22 03:28:52;;;;;;;;;;;12.00;43.10;;;12.19;46.00;99970.34;5043281;28;19925;-36
2024/01/22 03:31:21;;;;;;;;;;;12.00;43.30;;;12.18;46.17;99964.41;5042320;28;19931;-36
2024/01/22 03:33:51;;;;;;;;;;;12.00;43.40;;;12.24;45.51;99974.25;5048884;28;19925;-36
2024/01/22 03:36:19;;;;;;;;;;;12.00;43.20;;;12.25;45.69;99983.56;5051081;28;20395;-36
2024/01/22 03:38:47;;;;;;;;;;;12.10;43.20;;;12.27;46.01;99989.63;5045238;28;19978;-36
2024/01/22 03:41:15;;;;;;;;;;;12.10;43.20;;;12.23;45.47;100012.63;5036177;28;19925;-36
2024/01/22 03:43:43;;;;;;;;;;;12.10;43.10;;;12.21;45.58;99988.97;5041955;28;20060;-36
2024/01/22 03:46:11;;;;;;;;;;;12.00;43.20;;;12.23;45.79;100002.59;5049287;28;20403;-36
2024/01/22 03:48:39;;;;;;;;;;;12.10;43.20;;;12.26;45.80;99987.88;5029458;28;19925;-36
2024/01/22 03:51:09;;;;;;;;;;;12.10;43.20;;;12.26;46.08;99992.91;5037656;28;19935;-36
2024/01/22 03:53:37;;;;;;;;;;;12.10;43.10;;;12.27;45.97;100014.75;5044754;28;20028;-35
2024/01/22 03:56:06;;;;;;;;;;;12.10;43.00;;;12.23;46.07;99997.56;5044497;28;19960;-35
2024/01/22 03:58:34;;;;;;;;;;;12.10;43.20;;;12.26;45.55;100008.88;5041974;28;19933;-35
2024/01/22 04:01:02;;;;;;;;;;;12.10;43.10;;;12.25;45.71;99999.53;5033098;28;20287;-35
2024/01/22 04:03:31;;;;;;;;;;;12.10;43.30;;;12.27;45.64;99994.66;5040743;28;19925;-36
2024/01/22 04:06:00;;;;;;;;;;;12.10;43.40;;;12.27;45.82;99979.59;5032630;28;19925;-35
2024/01/22 04:08:29;;;;;;;;;;;12.10;43.40;;;12.24;45.80;99969.22;5032544;28;19976;-35
2024/01/22 04:10:57;;;;;;;;;;;12.10;43.40;;;12.23;46.52;99977.47;5046281;28;20406;-36
2024/01/22 04:13:25;;;;;;;;;;;12.00;43.60;;;12.23;45.49;99967.44;5052024;28;19964;-36
2024/01/22 04:16:02;;;;;;;;;;;12.00;43.60;;;12.25;45.85;99978.56;5037990;28;20273;-36
2024/01/22 04:18:30;;;;;;;;;;;12.10;43.60;;;12.25;46.54;99961.88;5048602;28;19928;-36
2024/01/22 04:20:58;;;;;;;;;;;12.10;43.60;;;12.25;46.14;99981.06;5040486;28;19948;-36
2024/01/22 04:23:27;;;;;;;;;;;12.10;43.60;;;12.24;46.89;99954.16;5042130;28;19951;-36
2024/01/22 04:25:56;;;;;;;;;;;12.10;43.70;;;12.22;46.44;99955.59;5044567;28;19932;-36
2024/01/22 04:28:24;;;;;;;;;;;12.00;44.00;;;12.24;46.34;99961.69;5038304;28;19925;-36
2024/01/22 04:30:52;;;;;;;;;;;12.00;43.80;;;12.23;45.83;99943.22;5032550;28;20008;-35
2024/01/22 04:33:20;;;;;;;;;;;12.00;43.80;;;12.28;45.96;99951.25;5049156;28;20023;-37
2024/01/22 04:35:49;;;;;;;;;;;12.10;43.80;;;12.24;46.07;99926.53;5039803;28;19935;-35
2024/01/22 04:38:18;;;;;;;;;;;12.10;43.80;;;12.23;46.46;99932.25;5040788;28;19925;-35
2024/01/22 04:40:46;;;;;;;;;;;12.00;44.00;;;12.22;46.43;99950.56;5045505;28;20475;-36
2024/01/22 04:43:16;;;;;;;;;;;12.00;44.10;;;12.24;46.34;99952.53;5052175;28;19980;-36
2024/01/22 04:45:44;;;;;;;;;;;12.00;44.30;;;12.24;46.56;99924.00;5044123;28;19931;-36
2024/01/22 04:48:12;;;;;;;;;;;12.00;44.10;;;12.24;46.39;99903.94;5052281;28;19967;-36
2024/01/22 04:50:40;;;;;;;;;;;12.00;44.40;;;12.18;47.22;99898.22;5040000;28;19925;-36
2024/01/22 04:53:08;;;;;;;;;;;12.10;44.20;;;12.22;46.81;99906.25;5046650;28;20031;-36
2024/01/22 04:55:36;;;;;;;;;;;12.00;44.20;;;12.24;47.23;99888.84;5033196;28;19935;-36
2024/01/22 04:58:05;;;;;;;;;;;12.00;44.20;;;12.25;47.09;99880.59;5047235;28;19925;-36
2024/01/22 05:00:34;;;;;;;;;;;12.10;44.60;;;12.23;46.74;99887.06;5044910;28;19932;-36
2024/01/22 05:03:04;;;;;;;;;;;12.10;44.50;;;12.25;47.48;99878.09;5043612;28;19925;-36
2024/01/22 05:05:34;;;;;;;;;;;12.10;44.50;;;12.25;47.33;99873.06;5045702;28;19979;-36
2024/01/22 05:08:02;;;;;;;;;;;12.10;44.60;;;12.23;47.39;99856.91;5055142;28;19925;-36
2024/01/22 05:10:30;;;;;;;;;;;12.00;44.60;;;12.25;47.15;99875.56;5055143;28;19924;-36
2024/01/22 05:12:58;;;;;;;;;;;12.10;44.60;;;12.26;47.70;99842.22;5046359;28;19925;-36
2024/01/22 05:15:26;;;;;;;;;;;12.10;44.60;;;12.27;47.67;99834.81;5045528;28;19931;-36
2024/01/22 05:17:55;;;;;;;;;;;12.10;44.70;;;12.27;47.15;99838.94;5035084;28;19925;-36
2024/01/22 05:20:24;;;;;;;;;;;12.10;44.60;;;12.26;47.52;99832.16;5034981;28;20385;-36
2024/01/22 05:22:51;;;;;;;;;;;12.10;44.70;;;12.26;47.01;99807.03;5047320;28;19925;-36
2024/01/22 05:25:19;;;;;;;;;;;12.10;44.80;;;12.26;47.34;99807.94;5047030;28;19935;-36
2024/01/22 05:27:48;;;;;;;;;;;12.10;44.80;;;12.28;47.15;99830.69;5042844;28;20033;-36
2024/01/22 05:30:15;;;;;;;;;;;12.10;44.80;;;12.26;48.12;99809.56;5035204;28;19979;-36
2024/01/22 05:32:44;;;;;;;;;;;12.10;44.80;;;12.28;47.15;99815.63;5046098;28;19932;-36
2024/01/22 05:35:15;;;;;;;;;;;12.10;44.80;;;12.25;47.56;99795.22;5046258;28;20383;-36
2024/01/22 05:37:42;;;;;;;;;;;12.10;45.00;;;12.25;47.28;99815.31;5037935;28;19933;-36
2024/01/22 05:40:13;;;;;;;;;;;12.10;45.20;;;12.27;48.01;99796.25;5055021;28;19964;-36
2024/01/22 05:42:41;;;;;;;;;;;12.10;45.20;;;12.29;47.67;99832.47;5045886;28;20004;-36
2024/01/22 05:45:11;;;;;;;;;;;12.10;45.00;;;12.28;48.13;99815.63;5054674;28;19928;-36
2024/01/22 05:47:39;;;;;;;;;;;12.10;45.20;;;12.27;48.37;99811.31;5054357;28;19929;-36
2024/01/22 05:50:09;;;;;;;;;;;12.10;45.20;;;12.27;48.16;99803.78;5039761;28;20012;-36
2024/01/22 05:52:38;;;;;;;;;;;12.10;45.30;;;12.25;48.30;99820.31;5050172;28;20019;-36
2024/01/22 05:55:07;;;;;;;;;;;12.10;45.40;;;12.26;48.19;99805.44;5049344;28;20012;-36
2024/01/22 05:57:35;;;;;;;;;;;12.10;45.40;;;12.26;48.46;99812.06;5037966;28;19956;-36
2024/01/22 06:00:09;;;;;;;;;;;12.10;45.50;;;12.26;47.76;99771.88;5054420;28;19975;-36
2024/01/22 06:02:37;;;;;;;;;;;12.10;45.50;;;12.27;47.87;99788.72;5051525;28;19924;-36
2024/01/22 06:05:06;;;;;;;;;;;12.10;45.60;;;12.25;47.56;99806.16;5048401;28;19974;-36
2024/01/22 06:07:35;;;;;;;;;;;12.10;45.60;;;12.24;48.62;99795.94;5052544;28;19979;-36
2024/01/22 06:10:06;;;;;;;;;;;12.10;45.70;;;12.27;48.09;99791.22;5048110;28;19971;-36
2024/01/22 06:12:35;;;;;;;;;;;12.10;45.70;;;12.26;48.28;99792.88;5053439;28;19925;-36
2024/01/22 06:15:03;;;;;;;;;;;12.10;45.70;;;12.26;48.70;99779.41;5045664;28;19931;-36
2024/01/22 06:17:32;;;;;;;;;;;12.10;46.00;;;12.27;47.94;99783.69;5035959;28;20020;-36
2024/01/22 06:20:00;;;;;;;;;;;12.10;45.90;;;12.24;48.80;99779.25;5039053;28;19967;-36
2024/01/22 06:22:28;;;;;;;;;;;12.10;45.90;;;12.25;49.15;99758.44;5035952;28;20016;-36
2024/01/22 06:24:56;;;;;;;;;;;12.10;46.10;;;12.27;48.84;99788.72;5046711;28;19925;-36
2024/01/22 06:27:25;;;;;;;;;;;12.10;46.00;;;12.27;48.74;99768.63;5053623;28;19932;-36
2024/01/22 06:29:53;;;;;;;;;;;12.10;46.60;;;12.29;48.71;99787.28;5048296;28;19931;-36
2024/01/22 06:32:21;;;;;;;;;;;12.10;45.90;;;12.28;48.66;99790.50;5053092;28;19924;-36
2024/01/22 06:34:49;;;;;;;;;;;12.10;46.00;;;12.27;49.02;99773.63;5045309;28;19925;-36
2024/01/22 06:37:17;;;;;;;;;;;12.10;46.30;;;12.26;48.78;99771.88;5045350;28;20414;-36
2024/01/22 06:39:45;;;;;;;;;;;12.10;46.40;;;12.25;49.31;99771.00;5053519;28;19928;-36
2024/01/22 06:42:13;;;;;;;;;;;12.10;46.40;;;12.26;48.81;99767.75;5053168;28;19925;-36
2024/01/22 06:44:59;;;;;;;;;;;12.10;46.30;;;12.26;49.18;99777.81;5039542;28;20422;-36
2024/01/22 06:47:29;;;;;;;;;;;12.10;46.50;;;12.26;49.11;99752.69;5045375;28;20356;-36
2024/01/22 06:49:57;;;;;;;;;;;12.10;46.50;;;12.26;49.68;99769.38;5049284;28;19932;-36
2024/01/22 06:52:25;;;;;;;;;;;12.10;46.60;;;12.27;49.26;99784.59;5032942;28;19925;-36
2024/01/22 06:54:55;;;;;;;;;;;12.10;46.60;;;12.28;49.14;99780.47;5041476;28;20043;-36
2024/01/22 06:57:23;;;;;;;;;;;12.10;46.50;;;12.29;49.41;99778.13;5049610;28;19932;-36
2024/01/22 06:59:52;;;;;;;;;;;12.10;46.40;;;12.29;49.61;99789.78;5029133;28;19935;-36
2024/01/22 07:02:26;;;;;;;;;;;12.10;46.40;;;12.29;49.26;99783.13;5044220;28;19998;-36
2024/01/22 07:04:55;;;;;;;;;;;12.10;46.50;;;12.27;49.34;99796.25;5030180;28;20023;-36
2024/01/22 07:07:25;;;;;;;;;;;12.10;46.50;;;12.28;49.55;99780.47;5044621;28;19924;-36
2024/01/22 07:09:53;;;;;;;;;;;12.10;46.60;;;12.30;49.31;99800.00;5037507;28;20311;-36
2024/01/22 07:12:21;;;;;;;;;;;12.10;46.50;;;12.29;49.46;99792.28;5044830;28;19976;-36
2024/01/22 07:14:49;;;;;;;;;;;12.10;46.70;;;12.29;49.36;99802.34;5052875;28;19925;-36
2024/01/22 07:17:19;;;;;;;;;;;12.10;46.60;;;12.29;49.47;99782.25;5052905;28;19925;-36
2024/01/22 07:19:48;;;;;;;;;;;12.10;46.60;;;12.27;49.36;99793.72;5041469;28;19925;-36
2024/01/22 07:22:17;;;;;;;;;;;12.10;46.50;;;12.27;49.14;99789.59;5038539;28;19971;-36
2024/01/22 07:24:45;;;;;;;;;;;12.10;46.70;;;12.28;49.37;99785.47;5044836;28;19951;-36
2024/01/22 07:27:13;;;;;;;;;;;12.10;46.80;;;12.30;49.72;99791.56;5052819;28;19925;-36
2024/01/22 07:29:42;;;;;;;;;;;12.10;46.50;;;12.31;49.34;99780.81;5043945;28;19924;-36
2024/01/22 07:32:10;;;;;;;;;;;12.10;46.70;;;12.28;49.41;99796.41;5045497;22;20438;-33
2024/01/22 07:34:38;;;;;;;;;;;12.10;46.60;;;12.27;49.23;99789.59;5032750;28;19934;-33
2024/01/22 07:37:07;;;;;;;;;;;12.10;46.60;;;12.28;49.50;99793.91;5033230;28;19925;-34
2024/01/22 07:39:35;;;;;;;;;;;12.10;46.70;;;12.29;49.30;99772.19;5033026;28;19968;-35
2024/01/22 07:42:03;;;;;;;;;;;12.10;46.70;;;12.29;49.27;99792.28;5032311;28;20020;-35
2024/01/22 07:44:31;;;;;;;;;;;12.10;46.70;;;12.26;49.57;99766.88;5032878;28;19929;-34
2024/01/22 07:46:59;;;;;;;;;;;12.10;46.60;;;12.32;48.70;99792.66;5033447;28;20012;-34
2024/01/22 07:49:27;;;;;;;;;;;12.10;46.70;;;12.31;49.43;99785.84;5032762;28;19925;-35
2024/01/22 07:51:55;;;;;;;;;;;12.10;46.50;;;12.31;49.78;99790.84;5032407;28;19941;-36
2024/01/22 07:54:25;;;;;;;;;;;12.10;46.60;;;12.32;49.28;99782.59;5033524;28;19929;-34
2024/01/22 07:56:53;;;;;;;;;;;12.10;46.60;;;12.34;49.26;99777.00;5025486;28;19929;-30
2024/01/22 07:59:21;;;;;;;;;;;12.10;46.70;;;12.35;49.44;99797.97;5033876;28;20453;-30
2024/01/22 08:01:49;;;;;;;;;;;12.20;46.70;;;12.33;49.54;99790.28;5032927;28;20373;-31
2024/01/22 08:04:17;;;;;;;;;;;12.20;46.80;;;12.30;49.40;99789.06;5034386;28;19960;-32
2024/01/22 08:06:45;;;;;;;;;;;12.20;46.70;;;12.33;49.19;99794.44;5033783;28;20330;-32
2024/01/22 08:09:13;;;;;;;;;;;12.20;46.70;;;12.34;49.42;99822.22;5033420;28;20003;-30
2024/01/22 08:11:43;;;;;;;;;;;12.20;46.90;;;12.35;48.85;99797.97;5032218;28;19979;-32
2024/01/22 08:14:11;;;;;;;;;;;12.20;46.90;;;12.32;48.99;99797.66;5033198;28;19925;-38
2024/01/22 08:16:39;;;;;;;;;;;12.20;47.10;;;12.35;49.70;99808.03;5032600;28;20011;-32
2024/01/22 08:19:07;;;;;;;;;;;12.20;47.20;;;12.31;49.44;99801.78;5032667;28;19931;-32
2024/01/22 08:21:36;;;;;;;;;;;12.20;47.10;;;12.32;49.30;99792.66;5031774;28;20317;-32
2024/01/22 08:24:04;;;;;;;;;;;12.10;47.00;;;12.23;49.53;99786.59;5032657;28;19971;-33
2024/01/22 08:26:32;;;;;;;;;;;12.10;47.00;;;12.34;50.01;99796.19;5034084;28;19947;-32
2024/01/22 08:29:05;;;;;;;;;;;12.20;47.20;;;12.36;49.73;99819.88;5033032;28;19932;-33
2024/01/22 08:31:33;;;;;;;;;;;12.20;47.30;;;12.37;50.41;99816.63;5040476;28;19992;-31
2024/01/22 08:34:02;;;;;;;;;;;12.20;47.10;;;12.25;49.90;99805.25;5039128;28;20348;-32
2024/01/22 08:36:31;;;;;;;;;;;12.20;47.10;;;12.33;49.19;99820.41;5043160;28;20020;-32
2024/01/22 08:38:59;;;;;;;;;;;12.20;47.10;;;12.36;50.17;99824.91;5043761;28;19979;-34
2024/01/22 08:41:27;;;;;;;;;;;12.20;47.10;;;12.36;49.74;99825.78;5041405;28;19925;-33
2024/01/22 08:43:55;;;;;;;;;;;12.20;47.00;;;12.36;49.48;99834.94;5032942;28;19929;-31
2024/01/22 08:46:26;;;;;;;;;;;12.20;47.00;;;12.36;49.86;99834.94;5038296;28;19929;-33
2024/01/22 08:48:54;;;;;;;;;;;12.20;47.00;;;12.35;49.40;99828.13;5036470;28;20675;-32
2024/01/22 08:51:22;;;;;;;;;;;12.20;47.10;;;12.33;49.91;99840.50;5036034;28;20289;-32
2024/01/22 08:53:50;;;;;;;;;;;12.20;47.30;;;12.34;49.75;99836.38;5036752;28;19932;-34
2024/01/22 08:56:18;;;;;;;;;;;12.20;47.30;;;12.37;49.68;99831.72;5040356;28;19951;-33
2024/01/22 08:58:46;;;;;;;;;;;12.20;47.20;;;12.38;49.60;99838.53;5040760;28;19925;-32
2024/01/22 09:01:14;;;;;;;;;;;12.20;47.00;;;12.37;50.31;99832.59;5036823;28;19985;-32
2024/01/22 09:03:43;;;;;;;;;;;12.20;47.20;;;12.35;49.73;99829.03;5036526;28;20016;-34
2024/01/22 09:06:11;;;;;;;;;;;12.20;47.20;;;12.36;49.97;99824.91;5036530;28;19929;-34
2024/01/22 09:08:42;;;;;;;;;;;12.20;47.10;;;12.33;50.21;99824.56;5036080;28;19960;-32
2024/01/22 09:11:10;;;;;;;;;;;12.20;47.00;;;12.36;49.47;99834.94;5036498;28;19929;-32
2024/01/22 09:13:38;;;;;;;;;;;12.20;47.20;;;12.34;49.67;99831.34;5036351;28;19928;-32
2024/01/22 09:16:08;;;;;;;;;;;12.20;47.20;;;12.39;50.25;99827.75;5036397;28;19925;-34
2024/01/22 09:18:36;;;;;;;;;;;12.20;47.00;;;12.39;49.23;99845.34;5036286;28;20281;-32
2024/01/22 09:21:06;;;;;;;;;;;12.20;47.10;;;12.36;49.64;99824.91;5036004;28;20011;-32
2024/01/22 09:23:34;;;;;;;;;;;12.20;47.10;;;12.37;49.10;99811.63;5035140;28;19929;-33
2024/01/22 09:26:02;;;;;;;;;;;12.20;47.10;;;12.41;50.18;99818.75;5035639;28;19931;-32
2024/01/22 09:28:30;;;;;;;;;;;12.20;47.00;;;12.38;49.64;99814.31;5035770;28;19947;-30
2024/01/22 09:30:59;;;;;;;;;;;12.30;47.10;;;12.40;49.58;99817.84;5025192;28;19925;-32
2024/01/22 09:33:28;;;;;;;;;;;12.30;47.00;;;12.40;49.07;99797.75;5034507;28;20015;-32
2024/01/22 09:35:56;;;;;;;;;;;12.20;47.00;;;12.30;49.61;99791.56;5035571;28;19925;-32
2024/01/22 09:38:26;;;;;;;;;;;12.20;47.10;;;12.41;49.58;99803.69;5035310;28;20376;-32
2024/01/22 09:40:54;;;;;;;;;;;12.20;47.00;;;12.41;49.87;99801.16;5035238;28;19971;-34
2024/01/22 09:43:22;;;;;;;;;;;12.20;47.00;;;12.44;50.18;99821.59;5034486;28;20020;-34
2024/01/22 09:45:50;;;;;;;;;;;12.30;47.10;;;12.46;50.12;99815.09;5034337;28;19925;-34
2024/01/22 09:48:18;;;;;;;;;;;12.30;47.00;;;12.46;49.84;99817.63;5034793;28;19929;-34
2024/01/22 09:50:48;;;;;;;;;;;12.30;47.10;;;12.44;49.42;99817.47;5034936;28;19999;-33
2024/01/22 09:53:16;;;;;;;;;;;12.30;47.10;;;12.43;49.83;99818.19;5034609;28;20348;-34
2024/01/22 09:55:46;;;;;;;;;;;12.30;47.20;;;12.44;50.19;99804.91;5035155;28;19925;-33
2024/01/22 09:58:21;;;;;;;;;;;12.30;47.30;;;12.47;49.53;99799.31;5034829;28;20039;-33
2024/01/22 10:00:49;;;;;;;;;;;12.30;47.10;;;12.47;49.88;99801.81;5034228;28;19929;-32
2024/01/22 10:03:17;;;;;;;;;;;12.30;46.90;;;12.48;49.67;99803.63;5034167;28;19925;-33
2024/01/22 10:05:45;;;;;;;;;;;12.30;47.10;;;12.49;50.05;99802.91;5034638;28;19925;-33
2024/01/22 10:08:13;;;;;;;;;;;12.30;47.10;;;12.46;49.29;99787.47;5034525;28;19931;-32
2024/01/22 10:10:41;;;;;;;;;;;12.30;47.10;;;12.46;49.98;99802.56;5034138;28;20020;-32
2024/01/22 10:13:12;;;;;;;;;;;12.30;47.20;;;12.48;49.36;99802.00;5033726;28;19932;-33
2024/01/22 10:15:40;;;;;;;;;;;12.30;47.20;;;12.48;49.63;99783.53;5034151;28;19951;-35
2024/01/22 10:18:09;;;;;;;;;;;12.30;47.20;;;12.49;49.98;99783.69;5034588;28;19964;-34
2024/01/22 10:20:38;;;;;;;;;;;12.30;47.10;;;12.50;49.46;99799.66;5034253;28;20400;-32
2024/01/22 10:23:06;;;;;;;;;;;12.30;47.10;;;12.51;49.68;99788.91;5034224;28;20269;-32
2024/01/22 10:25:34;;;;;;;;;;;12.30;47.20;;;12.48;49.38;99773.47;5033987;28;19929;-32
2024/01/22 10:28:14;;;;;;;;;;;12.30;47.20;;;12.40;50.04;99756.66;5026408;28;19925;-32
2024/01/22 10:30:42;;;;;;;;;;;12.30;47.10;;;12.49;49.63;99772.75;5034009;28;19929;-32
2024/01/22 10:33:11;;;;;;;;;;;12.30;47.20;;;12.43;49.86;99757.91;5033925;28;19983;-32
2024/01/22 10:35:39;;;;;;;;;;;12.30;47.10;;;12.49;49.61;99786.22;5033745;28;19979;-33
2024/01/22 10:38:08;;;;;;;;;;;12.30;47.10;;;12.50;49.05;99769.50;5033216;28;19935;-32
2024/01/22 10:40:37;;;;;;;;;;;12.30;47.10;;;12.39;50.00;99754.91;5034055;28;20015;-36
2024/01/22 10:43:24;;;;;;;;;;;12.30;47.20;;;12.48;50.35;99770.97;5033710;28;19965;-33
2024/01/22 10:45:52;;;;;;;;;;;12.30;47.30;;;12.50;49.41;99754.44;5034054;28;19926;-33
2024/01/22 10:48:23;;;;;;;;;;;12.30;47.30;;;12.51;50.23;99760.34;5033934;28;20197;-33
2024/01/22 10:51:06;;;;;;;;;;;12.30;47.30;;;12.52;49.98;99750.44;5033816;28;20023;-34
2024/01/22 10:53:35;;;;;;;;;;;12.40;47.20;;;12.52;49.95;99752.09;5033296;28;19925;-35
2024/01/22 10:56:05;;;;;;;;;;;12.40;47.20;;;12.50;49.68;99749.41;5025888;28;20340;-32
2024/01/22 10:58:40;;;;;;;;;;;12.30;47.10;;;12.44;50.06;99746.25;5034133;28;20381;-30
2024/01/22 11:01:11;;;;;;;;;;;12.30;47.20;;;12.45;49.77;99750.53;5033672;28;19980;-33
2024/01/22 11:03:42;;;;;;;;;;;12.30;47.20;;;12.49;50.47;99752.66;5033851;28;19925;-33
2024/01/22 11:06:10;;;;;;;;;;;12.40;47.40;;;12.51;50.43;99746.19;5033627;28;19979;-31
2024/01/22 11:08:38;;;;;;;;;;;12.40;47.30;;;12.51;49.57;99746.19;5033423;28;20028;-38
2024/01/22 11:11:06;;;;;;;;;;;12.40;47.20;;;12.46;49.57;99729.69;5033624;28;19925;-31
2024/01/22 11:13:35;;;;;;;;;;;12.30;47.10;;;12.49;49.56;99742.59;5032764;28;19979;-32
2024/01/22 11:16:03;;;;;;;;;;;12.30;47.30;;;12.51;49.73;99746.19;5034003;28;19959;-35
2024/01/22 11:18:31;;;;;;;;;;;12.30;47.40;;;12.53;49.68;99749.72;5033651;28;19925;-33
2024/01/22 11:21:18;;;;;;;;;;;12.30;47.20;;;12.52;49.66;99727.84;5033055;28;19925;-34